createdAt,value
2023-03-04T00:00:43.230Z,65.50
2023-03-04T00:03:15.335Z,66.07
2023-03-04T00:05:42.029Z,65.23
2023-03-04T00:08:08.516Z,67.60
2023-03-04T00:10:35.025Z,71.47
2023-03-04T00:13:01.553Z,76.33
2023-03-04T00:15:28.034Z,66.80
2023-03-04T00:17:54.526Z,66.53
2023-03-04T00:20:21.054Z,67.87
2023-03-04T00:22:48.120Z,67.67
2023-03-04T00:25:14.967Z,68.27
2023-03-04T00:27:41.535Z,80.40
2023-03-04T00:30:09.540Z,76.13
2023-03-04T00:32:36.312Z,72.43
2023-03-04T00:35:03.803Z,65.63
2023-03-04T00:37:30.311Z,74.43
2023-03-04T00:39:56.756Z,69.57
2023-03-04T00:42:23.216Z,71.33
2023-03-04T00:44:49.698Z,66.17
2023-03-04T00:47:16.153Z,70.93
2023-03-04T00:49:42.676Z,72.20
2023-03-04T00:52:09.329Z,75.67
2023-03-04T00:54:35.852Z,73.97
2023-03-04T00:57:02.353Z,75.30
2023-03-04T00:59:28.886Z,71.50
2023-03-04T01:01:55.354Z,72.77
2023-03-04T01:04:21.884Z,70.80
2023-03-04T01:06:48.343Z,73.17
2023-03-04T01:09:14.837Z,73.17
2023-03-04T01:11:41.343Z,62.93
2023-03-04T01:14:07.854Z,70.97
2023-03-04T01:16:34.791Z,67.97
2023-03-04T01:19:01.447Z,68.77
2023-03-04T01:21:27.942Z,70.23
2023-03-04T01:23:55.511Z,66.80
2023-03-04T01:26:22.156Z,67.83
2023-03-04T01:28:48.637Z,73.10
2023-03-04T01:31:15.141Z,70.97
2023-03-04T01:33:41.629Z,67.23
2023-03-04T01:36:09.878Z,73.53
2023-03-04T01:38:36.426Z,74.20
2023-03-04T01:41:03.017Z,73.03
2023-03-04T01:43:31.305Z,71.33
2023-03-04T01:45:58.766Z,72.50
2023-03-04T01:48:28.132Z,70.47
2023-03-04T01:50:55.090Z,67.07
2023-03-04T01:53:25.166Z,73.07
2023-03-04T01:55:58.171Z,71.90
2023-03-04T01:58:31.081Z,70.83
2023-03-04T02:00:58.086Z,81.00
2023-03-04T02:03:25.015Z,75.73
2023-03-04T02:05:53.513Z,77.87
2023-03-04T02:08:22.819Z,74.30
2023-03-04T02:10:50.721Z,72.57
2023-03-04T02:13:17.541Z,76.80
2023-03-04T02:15:45.832Z,71.33
2023-03-04T02:18:17.108Z,74.47
2023-03-04T02:21:04.330Z,76.17
2023-03-04T02:23:56.002Z,76.90
2023-03-04T02:26:24.943Z,82.37
2023-03-04T02:28:54.280Z,82.00
2023-03-04T02:31:34.568Z,86.03
2023-03-04T02:34:04.649Z,80.97
2023-03-04T02:36:32.312Z,85.93
2023-03-04T02:39:15.644Z,82.47
2023-03-04T02:41:44.418Z,84.80
2023-03-04T02:44:21.623Z,88.93
2023-03-04T02:46:50.464Z,82.83
2023-03-04T02:49:17.853Z,77.90
2023-03-04T02:51:45.058Z,80.87
2023-03-04T02:54:20.010Z,81.07
2023-03-04T02:56:51.843Z,78.77
2023-03-04T02:59:19.517Z,82.80
2023-03-04T03:01:46.640Z,82.53
2023-03-04T03:04:13.939Z,81.37
2023-03-04T03:06:41.969Z,81.63
2023-03-04T03:09:08.899Z,79.37
2023-03-04T03:11:35.734Z,78.67
2023-03-04T03:14:03.776Z,82.17
2023-03-04T03:16:30.658Z,79.03
2023-03-04T03:18:57.549Z,80.57
2023-03-04T03:21:24.707Z,76.30
2023-03-04T03:23:51.204Z,85.37
2023-03-04T03:26:18.821Z,85.10
2023-03-04T03:28:45.428Z,77.50
2023-03-04T03:31:12.121Z,78.87
2023-03-04T03:33:38.678Z,82.47
2023-03-04T03:36:06.405Z,83.23
2023-03-04T03:38:32.995Z,82.47
2023-03-04T03:40:59.434Z,81.30
2023-03-04T03:43:25.929Z,82.90
2023-03-04T03:45:52.388Z,77.73
2023-03-04T03:48:18.855Z,74.00
2023-03-04T03:50:45.699Z,81.07
2023-03-04T03:53:12.245Z,88.53
2023-03-04T03:55:39.104Z,82.93
2023-03-04T03:58:05.761Z,85.07
2023-03-04T04:00:32.247Z,77.80
2023-03-04T04:03:00.427Z,75.90
2023-03-04T04:05:26.990Z,81.70
2023-03-04T04:07:54.276Z,82.73
2023-03-04T04:10:21.528Z,78.30
2023-03-04T04:12:48.090Z,81.20
2023-03-04T04:15:14.590Z,83.37
2023-03-04T04:17:41.064Z,77.23
2023-03-04T04:20:09.511Z,79.37
2023-03-04T04:22:36.008Z,84.63
2023-03-04T04:25:02.575Z,86.57
2023-03-04T04:27:29.065Z,81.43
2023-03-04T04:29:55.541Z,81.63
2023-03-04T04:32:22.031Z,79.40
2023-03-04T04:34:48.643Z,79.20
2023-03-04T04:37:15.137Z,86.50
2023-03-04T04:39:41.825Z,82.80
2023-03-04T04:42:10.887Z,73.57
2023-03-04T04:44:38.925Z,88.87
2023-03-04T04:47:07.233Z,81.93
2023-03-04T04:49:33.789Z,91.17
2023-03-04T04:52:00.242Z,81.80
2023-03-04T04:54:26.926Z,80.77
2023-03-04T04:56:53.555Z,82.40
2023-03-04T04:59:20.059Z,82.83
2023-03-04T05:01:46.723Z,80.47
2023-03-04T05:04:13.195Z,79.80
2023-03-04T05:06:39.821Z,81.90
2023-03-04T05:09:07.099Z,77.97
2023-03-04T05:11:34.141Z,85.77
2023-03-04T05:14:00.771Z,81.57
2023-03-04T05:16:27.654Z,82.47
2023-03-04T05:18:54.441Z,85.33
2023-03-04T05:21:21.015Z,85.13
2023-03-04T05:23:47.757Z,85.73
2023-03-04T05:26:17.063Z,81.93
2023-03-04T05:28:44.180Z,87.13
2023-03-04T05:31:11.250Z,73.87
2023-03-04T05:33:38.442Z,78.30
2023-03-04T05:36:06.461Z,91.10
2023-03-04T05:38:33.405Z,79.97
2023-03-04T05:41:03.662Z,78.00
2023-03-04T05:43:30.729Z,84.30
2023-03-04T05:45:57.386Z,82.17
2023-03-04T05:48:23.936Z,83.73
2023-03-04T05:50:57.927Z,87.13
2023-03-04T05:53:25.044Z,77.27
2023-03-04T05:55:51.856Z,80.27
2023-03-04T05:58:18.876Z,81.47
2023-03-04T06:00:45.693Z,80.97
2023-03-04T06:03:16.969Z,77.97
2023-03-04T06:05:43.644Z,80.23
2023-03-04T06:08:11.410Z,82.63
2023-03-04T06:10:39.941Z,83.67
2023-03-04T06:13:07.037Z,79.80
2023-03-04T06:15:33.550Z,80.27
2023-03-04T06:18:00.040Z,88.07
2023-03-04T06:20:26.537Z,80.30
2023-03-04T06:22:53.041Z,81.27
2023-03-04T06:25:20.144Z,79.97
2023-03-04T06:27:46.615Z,75.87
2023-03-04T06:30:13.723Z,67.97
2023-03-04T06:32:40.358Z,84.27
2023-03-04T06:35:07.153Z,85.93
2023-03-04T06:37:33.613Z,75.73
2023-03-04T06:40:00.101Z,85.93
2023-03-04T06:42:26.603Z,78.60
2023-03-04T06:44:53.089Z,77.10
2023-03-04T06:47:19.623Z,75.23
2023-03-04T06:49:46.109Z,76.17
2023-03-04T06:52:12.999Z,82.27
2023-03-04T06:54:39.995Z,88.00
2023-03-04T06:57:07.378Z,93.50
2023-03-04T06:59:34.403Z,95.43
2023-03-04T07:02:00.976Z,91.77
2023-03-04T07:04:27.638Z,90.33
2023-03-04T07:06:54.138Z,90.10
2023-03-04T07:09:20.597Z,88.23
2023-03-04T07:11:47.052Z,85.80
2023-03-04T07:14:13.652Z,88.47
2023-03-04T07:16:40.367Z,92.33
2023-03-04T07:19:07.196Z,97.43
2023-03-04T07:21:33.719Z,83.10
2023-03-04T07:24:00.267Z,91.03
2023-03-04T07:26:26.756Z,88.17
2023-03-04T07:28:54.538Z,91.43
2023-03-04T07:31:25.316Z,86.70
2023-03-04T07:33:52.240Z,86.67
2023-03-04T07:36:19.882Z,91.67
2023-03-04T07:38:48.443Z,79.87
2023-03-04T07:41:15.877Z,83.23
2023-03-04T07:43:42.871Z,84.33
2023-03-04T07:46:10.137Z,79.70
2023-03-04T07:48:37.415Z,88.77
2023-03-04T07:51:13.773Z,95.60
2023-03-04T07:53:42.052Z,92.33
2023-03-04T07:56:13.082Z,85.90
2023-03-04T07:58:40.072Z,88.67
2023-03-04T08:01:15.352Z,162.47
2023-03-04T08:03:42.263Z,84.07
2023-03-04T08:06:11.570Z,79.13
2023-03-04T08:08:38.454Z,89.63
2023-03-04T08:11:07.117Z,82.50
2023-03-04T08:13:34.604Z,86.50
2023-03-04T08:16:01.201Z,88.23
2023-03-04T08:18:27.784Z,86.43
2023-03-04T08:20:54.308Z,100.23
2023-03-04T08:23:21.030Z,92.00
2023-03-04T08:25:48.004Z,87.93
2023-03-04T08:28:14.505Z,94.43
2023-03-04T08:30:41.689Z,82.93
2023-03-04T08:33:09.028Z,84.93
2023-03-04T08:35:40.424Z,92.27
2023-03-04T08:38:07.430Z,92.57
2023-03-04T08:40:33.971Z,83.23
2023-03-04T08:43:00.739Z,83.47
2023-03-04T08:45:27.287Z,89.73
2023-03-04T08:47:53.786Z,88.07
2023-03-04T08:50:22.561Z,87.00
2023-03-04T08:52:49.342Z,86.43
2023-03-04T08:55:15.886Z,89.60
2023-03-04T08:57:42.440Z,86.90
2023-03-04T09:00:09.730Z,85.63
2023-03-04T09:02:36.250Z,79.40
2023-03-04T09:05:02.794Z,82.90
2023-03-04T09:07:29.355Z,86.20
2023-03-04T09:09:56.249Z,87.03
2023-03-04T09:12:22.745Z,82.97
2023-03-04T09:15:01.082Z,83.93
2023-03-04T09:17:35.054Z,87.37
2023-03-04T09:20:04.306Z,78.40
2023-03-04T09:22:31.008Z,81.53
2023-03-04T09:24:57.537Z,85.50
2023-03-04T09:27:24.134Z,82.17
2023-03-04T09:29:50.644Z,84.13
2023-03-04T09:32:17.441Z,88.83
2023-03-04T09:34:43.981Z,83.80
2023-03-04T09:37:10.584Z,82.10
2023-03-04T09:39:37.254Z,80.07
2023-03-04T09:42:06.322Z,80.20
2023-03-04T09:44:36.796Z,79.60
2023-03-04T09:47:08.155Z,78.70
2023-03-04T09:49:40.149Z,72.97
2023-03-04T09:52:27.405Z,76.00
2023-03-04T09:55:04.782Z,72.20
2023-03-04T09:57:37.155Z,73.80
2023-03-04T10:00:20.206Z,83.20
2023-03-04T10:03:09.856Z,78.10
2023-03-04T10:06:05.680Z,85.87
2023-03-04T10:08:40.232Z,82.13
2023-03-04T10:11:14.495Z,75.70
2023-03-04T10:13:59.333Z,76.90
2023-03-04T10:16:40.717Z,77.70
2023-03-04T10:19:22.633Z,82.30
2023-03-04T10:21:51.204Z,79.43
2023-03-04T10:24:22.507Z,78.23
2023-03-04T10:26:54.407Z,81.33
2023-03-04T10:29:24.277Z,82.00
2023-03-04T10:31:51.520Z,87.23
2023-03-04T10:36:56.928Z,80.30
2023-03-04T10:39:28.500Z,76.47
2023-03-04T10:41:58.809Z,71.50
2023-03-04T10:44:25.973Z,66.80
2023-03-04T10:46:55.203Z,65.87
2023-03-04T10:49:24.694Z,69.60
2023-03-04T10:52:23.712Z,73.83
2023-03-04T10:54:53.610Z,73.03
2023-03-04T10:57:20.098Z,74.80
2023-03-04T10:59:59.307Z,72.13
2023-03-04T11:02:28.063Z,73.43
2023-03-04T11:05:05.444Z,73.23
2023-03-04T11:07:43.585Z,71.70
2023-03-04T11:10:20.378Z,54.40
2023-03-04T11:12:52.777Z,67.40
2023-03-04T11:15:27.379Z,51.77
2023-03-04T11:17:59.153Z,42.17
2023-03-04T11:20:43.451Z,43.27
2023-03-04T11:23:16.853Z,41.93
2023-03-04T11:25:55.751Z,36.17
2023-03-04T11:28:42.119Z,37.77
2023-03-04T11:31:38.318Z,40.80
2023-03-04T11:34:44.662Z,43.33
2023-03-04T11:37:32.310Z,45.63
2023-03-04T11:40:07.174Z,46.13
2023-03-04T11:42:42.305Z,49.87
2023-03-04T11:45:28.779Z,44.53
2023-03-04T11:48:28.105Z,48.93
2023-03-04T11:50:59.877Z,49.03
2023-03-04T11:53:54.786Z,59.17
2023-03-04T11:56:35.062Z,53.63
2023-03-04T11:59:17.541Z,51.43
2023-03-04T12:01:59.662Z,50.27
2023-03-04T12:04:39.111Z,50.73
2023-03-04T12:07:31.614Z,54.30
2023-03-04T12:10:16.234Z,50.50
2023-03-04T12:13:04.273Z,51.80
2023-03-04T12:16:00.410Z,59.83
2023-03-04T12:19:11.724Z,51.03
2023-03-04T12:22:07.133Z,54.27
2023-03-04T12:24:39.272Z,52.27
2023-03-04T12:27:23.199Z,52.63
2023-03-04T12:29:58.617Z,46.80
2023-03-04T12:32:46.784Z,50.70
2023-03-04T12:35:35.373Z,50.20
2023-03-04T12:38:32.651Z,50.67
2023-03-04T12:41:30.052Z,51.20
2023-03-04T12:44:17.015Z,48.87
2023-03-04T12:47:06.994Z,47.47
2023-03-04T12:50:02.677Z,46.40
2023-03-04T12:52:46.728Z,46.00
2023-03-04T12:55:18.818Z,42.03
2023-03-04T12:57:46.572Z,38.97
2023-03-04T13:00:12.997Z,40.20
2023-03-04T13:02:56.633Z,37.70
2023-03-04T13:06:03.807Z,41.10
2023-03-04T13:08:45.858Z,36.17
2023-03-04T13:11:31.178Z,39.87
2023-03-04T13:14:23.301Z,41.67
2023-03-04T13:16:52.314Z,38.30
2023-03-04T13:19:46.593Z,35.13
2023-03-04T13:22:48.290Z,36.80
2023-03-04T13:25:39.311Z,36.60
2023-03-04T13:28:11.199Z,34.77
2023-03-04T13:30:40.660Z,37.50
2023-03-04T13:33:19.068Z,33.70
2023-03-04T13:36:00.030Z,34.00
2023-03-04T13:38:34.248Z,36.63
2023-03-04T13:41:28.672Z,32.70
2023-03-04T13:43:56.576Z,35.17
2023-03-04T13:46:23.828Z,37.73
2023-03-04T13:48:50.552Z,36.67
2023-03-04T13:51:29.345Z,41.03
2023-03-04T13:53:59.361Z,36.80
2023-03-04T13:56:37.766Z,35.87
2023-03-04T13:59:07.428Z,34.97
2023-03-04T14:01:42.928Z,36.03
2023-03-04T14:04:15.499Z,31.77
2023-03-04T14:06:44.195Z,34.10
2023-03-04T14:09:15.984Z,31.00
2023-03-04T14:11:43.805Z,31.40
2023-03-04T14:14:18.510Z,28.53
2023-03-04T14:16:52.314Z,26.73
2023-03-04T14:19:27.625Z,32.33
2023-03-04T14:21:55.221Z,28.60
2023-03-04T14:24:23.158Z,25.77
2023-03-04T14:26:50.584Z,27.07
2023-03-04T14:29:24.137Z,31.23
2023-03-04T14:31:51.506Z,24.70
2023-03-04T14:34:32.886Z,22.83
2023-03-04T14:37:00.186Z,23.63
2023-03-04T14:39:30.818Z,25.80
2023-03-04T14:42:03.351Z,23.87
2023-03-04T14:44:48.497Z,26.23
2023-03-04T14:47:30.523Z,21.33
2023-03-04T14:49:57.402Z,21.40
2023-03-04T14:52:41.226Z,21.43
2023-03-04T14:55:36.840Z,24.17
2023-03-04T14:58:20.169Z,23.87
2023-03-04T15:00:48.134Z,19.40
2023-03-04T15:03:22.508Z,20.00
2023-03-04T15:05:49.618Z,17.47
2023-03-04T15:08:24.063Z,21.30
2023-03-04T15:11:20.581Z,20.77
2023-03-04T15:13:50.540Z,21.93
2023-03-04T15:16:19.826Z,20.97
2023-03-04T15:19:23.463Z,24.10
2023-03-04T15:21:49.922Z,18.90
2023-03-04T15:24:16.367Z,20.43
2023-03-04T15:26:43.856Z,16.73
2023-03-04T15:29:17.188Z,17.30
2023-03-04T15:31:44.494Z,19.43
2023-03-04T15:34:19.516Z,18.30
2023-03-04T15:36:49.141Z,15.73
2023-03-04T15:39:17.292Z,17.63
2023-03-04T15:41:46.456Z,15.63
2023-03-04T15:44:13.122Z,20.60
2023-03-04T15:46:39.681Z,17.13
2023-03-04T15:49:06.217Z,19.67
2023-03-04T15:51:32.824Z,17.63
2023-03-04T15:54:00.190Z,22.83
2023-03-04T15:56:29.532Z,20.37
2023-03-04T15:58:58.748Z,19.03
2023-03-04T16:01:25.769Z,18.87
2023-03-04T16:03:53.821Z,17.17
2023-03-04T16:06:24.178Z,18.50
2023-03-04T16:08:51.667Z,18.87
2023-03-04T16:11:24.168Z,19.60
2023-03-04T16:13:50.742Z,17.70
2023-03-04T16:16:17.738Z,20.77
2023-03-04T16:18:45.001Z,18.20
2023-03-04T16:21:14.514Z,22.70
2023-03-04T16:23:43.445Z,16.13
2023-03-04T16:26:16.889Z,17.27
2023-03-04T16:28:43.748Z,13.67
2023-03-04T16:31:12.076Z,16.03
2023-03-04T16:33:38.733Z,17.80
2023-03-04T16:36:14.525Z,17.83
2023-03-04T16:38:41.747Z,15.17
2023-03-04T16:41:13.174Z,14.03
2023-03-04T16:43:42.949Z,14.40
2023-03-04T16:46:13.407Z,17.93
2023-03-04T16:48:41.045Z,13.50
2023-03-04T16:51:15.673Z,17.37
2023-03-04T16:53:44.754Z,15.77
2023-03-04T16:56:14.786Z,18.40
2023-03-04T16:58:42.416Z,18.93
2023-03-04T17:01:24.119Z,21.37
2023-03-04T17:03:50.654Z,22.50
2023-03-04T17:06:17.694Z,26.20
2023-03-04T17:08:44.465Z,24.73
2023-03-04T17:11:14.294Z,20.30
2023-03-04T17:13:40.751Z,16.70
2023-03-04T17:16:07.322Z,16.93
2023-03-04T17:18:33.861Z,17.17
2023-03-04T17:21:05.965Z,19.03
2023-03-04T17:23:34.920Z,17.23
2023-03-04T17:26:01.824Z,20.03
2023-03-04T17:28:28.351Z,22.07
2023-03-04T17:30:55.023Z,19.53
2023-03-04T17:33:22.023Z,20.47
2023-03-04T17:35:48.613Z,23.77
2023-03-04T17:38:15.740Z,22.33
2023-03-04T17:40:42.521Z,24.30
2023-03-04T17:43:11.313Z,24.90
2023-03-04T17:45:39.723Z,26.67
2023-03-04T17:48:07.366Z,23.13
2023-03-04T17:50:34.730Z,26.90
2023-03-04T17:53:01.216Z,22.80
2023-03-04T17:55:27.733Z,23.00
2023-03-04T17:57:55.574Z,26.90
2023-03-04T18:00:22.460Z,28.80
2023-03-04T18:02:48.962Z,32.50
2023-03-04T18:05:16.172Z,30.17
2023-03-04T18:07:42.653Z,35.83
2023-03-04T18:10:09.607Z,31.07
2023-03-04T18:12:36.096Z,34.83
2023-03-04T18:15:02.609Z,33.00
2023-03-04T18:17:29.066Z,30.50
2023-03-04T18:19:56.684Z,30.63
2023-03-04T18:22:23.196Z,30.90
2023-03-04T18:24:49.661Z,27.37
2023-03-04T18:27:16.156Z,23.10
2023-03-04T18:29:42.705Z,26.03
2023-03-04T18:32:09.238Z,22.17
2023-03-04T18:34:35.810Z,21.30
2023-03-04T18:37:02.361Z,21.83
2023-03-04T18:39:28.880Z,23.73
2023-03-04T18:41:55.388Z,18.10
2023-03-04T18:44:21.857Z,21.30
2023-03-04T18:46:53.580Z,24.00
2023-03-04T18:49:20.905Z,29.73
2023-03-04T18:51:47.441Z,35.43
2023-03-04T18:54:14.228Z,32.93
2023-03-04T18:56:51.404Z,35.00
2023-03-04T18:59:23.032Z,36.67
2023-03-04T19:01:52.903Z,41.30
2023-03-04T19:04:23.219Z,33.97
2023-03-04T19:06:49.920Z,27.43
2023-03-04T19:09:16.452Z,30.43
2023-03-04T19:11:42.948Z,42.27
2023-03-04T19:14:11.596Z,35.63
2023-03-04T19:16:38.806Z,64.87
2023-03-04T19:19:05.628Z,55.07
2023-03-04T19:21:32.523Z,48.10
2023-03-04T19:23:58.976Z,47.67
2023-03-04T19:26:25.449Z,42.90
2023-03-04T19:28:51.905Z,43.20
2023-03-04T19:31:18.345Z,38.50
2023-03-04T19:33:44.798Z,35.97
2023-03-04T19:36:11.308Z,39.63
2023-03-04T19:38:38.327Z,38.90
2023-03-04T19:41:13.095Z,40.60
2023-03-04T19:43:40.273Z,34.57
2023-03-04T19:46:08.649Z,43.20
2023-03-04T19:48:37.058Z,35.13
2023-03-04T19:51:04.998Z,32.23
2023-03-04T19:53:34.588Z,27.37
2023-03-04T19:56:01.459Z,26.97
2023-03-04T19:58:28.015Z,30.43
2023-03-04T20:00:56.090Z,31.27
2023-03-04T20:03:23.995Z,34.20
2023-03-04T20:05:50.521Z,34.40
2023-03-04T20:08:17.107Z,43.67
2023-03-04T20:10:43.671Z,40.07
2023-03-04T20:13:10.346Z,22.07
2023-03-04T20:15:37.506Z,24.93
2023-03-04T20:18:04.442Z,25.20
2023-03-04T20:20:31.002Z,22.63
2023-03-04T20:22:57.921Z,22.57
2023-03-04T20:25:25.081Z,23.63
2023-03-04T20:27:51.578Z,23.70
2023-03-04T20:30:18.357Z,27.70
2023-03-04T20:32:45.331Z,35.07
2023-03-04T20:35:14.990Z,35.87
2023-03-04T20:37:42.250Z,36.97
2023-03-04T20:40:11.291Z,37.20
2023-03-04T20:42:37.773Z,39.60
2023-03-04T20:45:04.971Z,37.67
2023-03-04T20:47:31.504Z,36.13
2023-03-04T20:49:58.064Z,38.83
2023-03-04T20:52:25.325Z,36.80
2023-03-04T20:54:51.891Z,37.00
2023-03-04T20:57:18.331Z,36.13
2023-03-04T20:59:44.814Z,40.03
2023-03-04T21:02:14.705Z,42.03
2023-03-04T21:04:41.420Z,36.10
2023-03-04T21:07:07.875Z,34.10
2023-03-04T21:09:34.339Z,36.33
2023-03-04T21:12:01.202Z,31.37
2023-03-04T21:14:30.052Z,38.83
2023-03-04T21:16:59.048Z,29.97
2023-03-04T21:19:28.696Z,33.27
2023-03-04T21:21:56.445Z,39.97
2023-03-04T21:24:25.892Z,34.60
2023-03-04T21:26:52.432Z,37.70
2023-03-04T21:29:21.320Z,35.50
2023-03-04T21:31:52.052Z,37.77
2023-03-04T21:34:31.831Z,37.97
2023-03-04T21:36:58.277Z,31.20
2023-03-04T21:39:25.143Z,31.43
2023-03-04T21:41:52.718Z,32.30
2023-03-04T21:44:28.402Z,35.80
2023-03-04T21:47:01.055Z,33.90
2023-03-04T21:49:28.322Z,28.57
2023-03-04T21:51:55.211Z,27.50
2023-03-04T21:54:22.263Z,25.57
2023-03-04T21:56:50.154Z,29.60
2023-03-04T21:59:20.012Z,26.83
2023-03-04T22:01:46.763Z,27.27
2023-03-04T22:04:13.458Z,23.33
2023-03-04T22:06:41.238Z,30.20
2023-03-04T22:09:07.939Z,34.80
2023-03-04T22:11:34.458Z,36.07
2023-03-04T22:14:02.735Z,33.47
2023-03-04T22:16:30.250Z,31.10
2023-03-04T22:18:56.991Z,30.20
2023-03-04T22:21:23.569Z,30.77
2023-03-04T22:23:50.129Z,30.40
2023-03-04T22:26:19.451Z,27.63
2023-03-04T22:28:46.803Z,31.43
2023-03-04T22:31:19.269Z,25.10
2023-03-04T22:33:46.327Z,27.53
2023-03-04T22:36:13.716Z,29.30
2023-03-04T22:38:40.750Z,30.97
2023-03-04T22:41:19.414Z,32.93
2023-03-04T22:46:20.730Z,31.90
2023-03-04T22:48:52.637Z,28.07
2023-03-04T22:51:20.689Z,32.43
2023-03-04T22:53:48.503Z,31.20
2023-03-04T22:56:15.741Z,26.70
2023-03-04T22:58:44.468Z,28.60
2023-03-04T23:01:12.849Z,29.67
2023-03-04T23:03:41.578Z,28.07
2023-03-04T23:06:20.232Z,30.30
2023-03-04T23:08:48.794Z,28.07
2023-03-04T23:11:21.766Z,31.90
2023-03-04T23:13:49.921Z,30.93
2023-03-04T23:16:17.279Z,29.50
2023-03-04T23:18:46.493Z,29.93
2023-03-04T23:21:15.941Z,29.77
2023-03-04T23:23:42.744Z,25.97
2023-03-04T23:26:24.593Z,32.07
2023-03-04T23:28:51.538Z,35.37
2023-03-04T23:31:18.939Z,36.03
2023-03-04T23:33:47.621Z,34.17
2023-03-04T23:36:16.993Z,34.57
2023-03-04T23:38:46.022Z,34.53
2023-03-04T23:41:14.312Z,30.90
2023-03-04T23:43:40.882Z,33.70
2023-03-04T23:46:09.351Z,32.83
2023-03-04T23:48:35.913Z,26.63
2023-03-04T23:51:02.474Z,26.60
2023-03-04T23:53:29.414Z,30.80
2023-03-04T23:55:56.252Z,31.07
2023-03-04T23:58:22.746Z,24.77
